createdAt,value
2018-12-04T00:00:07.000Z,27.7
2018-12-04T00:01:23.000Z,27.7
2018-12-04T00:03:23.000Z,27.6
2018-12-04T00:04:23.000Z,27.6
2018-12-04T00:05:23.000Z,27.6
2018-12-04T00:06:23.000Z,27.6
2018-12-04T00:08:23.000Z,27.7
2018-12-04T00:10:23.000Z,27.6
2018-12-04T00:11:23.000Z,27.6
2018-12-04T00:12:23.000Z,27.6
2018-12-04T00:14:07.000Z,27.7
2018-12-04T00:15:23.000Z,27.6
2018-12-04T00:17:07.000Z,27.6
2018-12-04T00:18:23.000Z,27.5
2018-12-04T00:19:23.000Z,27.5
2018-12-04T00:21:23.000Z,27.5
2018-12-04T00:22:23.000Z,27.5
2018-12-04T00:24:23.000Z,27.6
2018-12-04T00:26:23.000Z,27.5
2018-12-04T00:28:23.000Z,27.5
2018-12-04T00:29:23.000Z,27.5
2018-12-04T00:31:07.000Z,27.5
2018-12-04T00:32:23.000Z,27.5
2018-12-04T00:33:23.000Z,27.5
2018-12-04T00:35:23.000Z,27.5
2018-12-04T00:37:23.000Z,27.5
2018-12-04T00:39:23.000Z,27.4
2018-12-04T00:41:23.000Z,27.4
2018-12-04T00:43:07.000Z,27.4
2018-12-04T00:44:23.000Z,27.3
2018-12-04T00:45:23.000Z,27.4
2018-12-04T00:47:23.000Z,27.4
2018-12-04T00:49:23.000Z,27.3
2018-12-04T00:50:23.000Z,27.3
2018-12-04T00:51:23.000Z,27.3
2018-12-04T00:52:23.000Z,27.4
2018-12-04T00:54:08.000Z,27.4
2018-12-04T00:55:23.000Z,27.4
2018-12-04T00:56:23.000Z,27.4
2018-12-04T00:58:23.000Z,27.4
2018-12-04T00:59:23.000Z,27.4
2018-12-04T01:01:23.000Z,27.4
2018-12-04T01:03:23.000Z,27.3
2018-12-04T01:04:23.000Z,27.3
2018-12-04T01:06:23.000Z,27.3
2018-12-04T01:08:23.000Z,27.3
2018-12-04T01:10:23.000Z,27.1
2018-12-04T01:11:23.000Z,27.1
2018-12-04T01:13:23.000Z,27.1
2018-12-04T01:15:08.000Z,27.1
2018-12-04T01:16:23.000Z,27.1
2018-12-04T01:17:23.000Z,27.1
2018-12-04T01:19:23.000Z,27.2
2018-12-04T01:21:23.000Z,27.2
2018-12-04T01:23:23.000Z,27.1
2018-12-04T01:24:23.000Z,27.1
2018-12-04T01:26:23.000Z,27.1
2018-12-04T01:27:23.000Z,27.1
2018-12-04T01:28:23.000Z,27.2
2018-12-04T01:30:23.000Z,27.3
2018-12-04T01:32:08.000Z,27.3
2018-12-04T01:33:23.000Z,27.3
2018-12-04T01:34:23.000Z,27.3
2018-12-04T01:36:23.000Z,27.3
2018-12-04T01:38:23.000Z,27.3
2018-12-04T01:39:23.000Z,27.3
2018-12-04T01:41:23.000Z,27.2
2018-12-04T01:42:23.000Z,27.2
2018-12-04T01:43:23.000Z,27.2
2018-12-04T01:44:23.000Z,27.3
2018-12-04T01:46:08.000Z,27.3
2018-12-04T01:47:23.000Z,27.3
2018-12-04T01:48:23.000Z,27.3
2018-12-04T01:50:23.000Z,27.4
2018-12-04T01:51:23.000Z,27.4
2018-12-04T01:52:23.000Z,27.4
2018-12-04T01:54:08.000Z,27.5
2018-12-04T01:55:23.000Z,27.4
2018-12-04T01:56:23.000Z,27.4
2018-12-04T01:58:22.000Z,27.4
2018-12-04T01:59:22.000Z,27.4
2018-12-04T02:00:22.000Z,27.5
2018-12-04T02:02:22.000Z,27.5
2018-12-04T02:03:22.000Z,27.5
2018-12-04T02:04:22.000Z,27.5
2018-12-04T02:06:22.000Z,27.6
2018-12-04T02:08:22.000Z,27.5
2018-12-04T02:09:22.000Z,27.4
2018-12-04T02:11:22.000Z,27.4
2018-12-04T02:12:22.000Z,27.3
2018-12-04T02:13:22.000Z,27.4
2018-12-04T02:14:22.000Z,27.4
2018-12-04T02:16:22.000Z,27.5
2018-12-04T02:17:22.000Z,27.5
2018-12-04T02:19:22.000Z,27.4
2018-12-04T02:21:22.000Z,27.4
2018-12-04T02:22:22.000Z,27.4
2018-12-04T02:23:22.000Z,27.4
2018-12-04T02:25:22.000Z,27.4
2018-12-04T02:26:22.000Z,27.4
2018-12-04T02:28:22.000Z,27.3
2018-12-04T02:29:22.000Z,27.3
2018-12-04T02:31:22.000Z,27.3
2018-12-04T02:33:22.000Z,27.3
2018-12-04T02:35:22.000Z,27.3
2018-12-04T02:36:22.000Z,27.3
2018-12-04T02:38:22.000Z,27.3
2018-12-04T02:39:22.000Z,27.3
2018-12-04T02:41:22.000Z,27.3
2018-12-04T02:43:22.000Z,27.3
2018-12-04T02:44:22.000Z,27.2
2018-12-04T02:46:22.000Z,27.3
2018-12-04T02:48:22.000Z,27.2
2018-12-04T02:49:22.000Z,27.2
2018-12-04T02:51:22.000Z,27.3
2018-12-04T02:52:22.000Z,27.3
2018-12-04T02:53:22.000Z,27.3
2018-12-04T02:54:22.000Z,27.3
2018-12-04T02:56:22.000Z,27.4
2018-12-04T02:58:22.000Z,27.3
2018-12-04T02:59:22.000Z,27.3
2018-12-04T03:00:22.000Z,27.3
2018-12-04T03:02:23.000Z,27.3
2018-12-04T03:04:08.000Z,27.2
2018-12-04T03:05:23.000Z,27.2
2018-12-04T03:07:23.000Z,27.2
2018-12-04T03:09:23.000Z,27.1
2018-12-04T03:11:23.000Z,27.1
2018-12-04T03:13:23.000Z,27.1
2018-12-04T03:15:23.000Z,27.1
2018-12-04T03:16:23.000Z,27.1
2018-12-04T03:18:08.000Z,27.2
2018-12-04T03:19:23.000Z,27.2
2018-12-04T03:21:23.000Z,27.2
2018-12-04T03:23:08.000Z,27.2
2018-12-04T03:24:23.000Z,27.1
2018-12-04T03:25:23.000Z,27.1
2018-12-04T03:27:23.000Z,27.2
2018-12-04T03:28:23.000Z,27.2
2018-12-04T03:29:23.000Z,27.3
2018-12-04T03:30:23.000Z,27.4
2018-12-04T03:32:23.000Z,27.4
2018-12-04T03:34:08.000Z,27.4
2018-12-04T03:35:23.000Z,27.3
2018-12-04T03:37:23.000Z,27.3
2018-12-04T03:38:23.000Z,27.3
2018-12-04T03:39:23.000Z,27.3
2018-12-04T03:41:23.000Z,27.2
2018-12-04T03:43:23.000Z,27.1
2018-12-04T03:44:23.000Z,27.1
2018-12-04T03:46:08.000Z,27.1
2018-12-04T03:47:23.000Z,27.1
2018-12-04T03:49:23.000Z,27.1
2018-12-04T03:50:23.000Z,27.1
2018-12-04T03:51:23.000Z,27.1
2018-12-04T03:53:23.000Z,27.2
2018-12-04T03:54:23.000Z,27.2
2018-12-04T03:55:23.000Z,27.2
2018-12-04T03:56:23.000Z,27.3
2018-12-04T03:57:23.000Z,27.3
2018-12-04T03:59:23.000Z,27.3
2018-12-04T04:01:08.000Z,27.4
2018-12-04T04:02:23.000Z,27.3
2018-12-04T04:03:23.000Z,27.3
2018-12-04T04:05:23.000Z,27.3
2018-12-04T04:07:23.000Z,27.3
2018-12-04T04:09:23.000Z,27.2
2018-12-04T04:11:23.000Z,27.2
2018-12-04T04:13:23.000Z,27.2
2018-12-04T04:15:07.000Z,27.1
2018-12-04T04:16:23.000Z,27.1
2018-12-04T04:17:23.000Z,27.1
2018-12-04T04:18:23.000Z,27.1
2018-12-04T04:20:23.000Z,27.2
2018-12-04T04:21:23.000Z,27.2
2018-12-04T04:22:23.000Z,27.2
2018-12-04T04:23:23.000Z,27.2
2018-12-04T04:25:23.000Z,27.2
2018-12-04T04:26:23.000Z,27.2
2018-12-04T04:28:23.000Z,27.2
2018-12-04T04:30:23.000Z,27.1
2018-12-04T04:31:23.000Z,27.1
2018-12-04T04:33:23.000Z,27
2018-12-04T04:35:23.000Z,27
2018-12-04T04:37:23.000Z,27
2018-12-04T04:39:23.000Z,27
2018-12-04T04:41:23.000Z,27
2018-12-04T04:42:23.000Z,27
2018-12-04T04:44:23.000Z,27.1
2018-12-04T04:45:23.000Z,27.1
2018-12-04T04:47:23.000Z,27.1
2018-12-04T04:48:23.000Z,27.2
2018-12-04T04:50:23.000Z,27.2
2018-12-04T04:51:23.000Z,27.1
2018-12-04T04:52:23.000Z,27.2
2018-12-04T04:53:23.000Z,27.2
2018-12-04T04:54:23.000Z,27.3
2018-12-04T04:56:07.000Z,27.4
2018-12-04T04:57:23.000Z,27.3
2018-12-04T04:59:23.000Z,27.2
2018-12-04T05:00:23.000Z,27.1
2018-12-04T05:01:23.000Z,27.1
2018-12-04T05:03:23.000Z,27.1
2018-12-04T05:05:23.000Z,27.1
2018-12-04T05:07:23.000Z,27.1
2018-12-04T05:08:23.000Z,27.1
2018-12-04T05:10:23.000Z,27.1
2018-12-04T05:11:23.000Z,27.1
2018-12-04T05:13:23.000Z,27.2
2018-12-04T05:15:23.000Z,27.2
2018-12-04T05:16:23.000Z,27.2
2018-12-04T05:18:23.000Z,27.2
2018-12-04T05:19:23.000Z,27.2
2018-12-04T05:21:08.000Z,27.3
2018-12-04T05:22:23.000Z,27.2
2018-12-04T05:23:23.000Z,27.1
2018-12-04T05:25:23.000Z,27.1
2018-12-04T05:27:23.000Z,27
2018-12-04T05:28:23.000Z,27
2018-12-04T05:29:23.000Z,27
2018-12-04T05:31:23.000Z,26.9
2018-12-04T05:32:23.000Z,26.9
2018-12-04T05:34:23.000Z,27
2018-12-04T05:35:23.000Z,27
2018-12-04T05:37:23.000Z,27
2018-12-04T05:39:23.000Z,27
2018-12-04T05:40:23.000Z,27
2018-12-04T05:42:23.000Z,27
2018-12-04T05:44:23.000Z,27
2018-12-04T05:45:23.000Z,27.1
2018-12-04T05:47:23.000Z,27.2
2018-12-04T05:48:23.000Z,27.2
2018-12-04T05:50:08.000Z,27.4
2018-12-04T05:51:23.000Z,27.4
2018-12-04T05:53:23.000Z,27.4
2018-12-04T05:54:23.000Z,27.4
2018-12-04T05:56:23.000Z,27.5
2018-12-04T05:58:23.000Z,27.4
2018-12-04T05:59:23.000Z,27.4
2018-12-04T06:01:23.000Z,27.4
2018-12-04T06:02:23.000Z,27.4
2018-12-04T06:04:23.000Z,27.5
2018-12-04T06:06:23.000Z,27.5
2018-12-04T06:08:23.000Z,27.5
2018-12-04T06:09:23.000Z,27.5
2018-12-04T06:11:23.000Z,27.5
2018-12-04T06:12:23.000Z,27.6
2018-12-04T06:14:23.000Z,27.6
2018-12-04T06:16:23.000Z,27.6
2018-12-04T06:18:23.000Z,27.6
2018-12-04T06:20:23.000Z,27.6
2018-12-04T06:22:23.000Z,27.6
2018-12-04T06:23:23.000Z,27.7
2018-12-04T06:25:23.000Z,27.7
2018-12-04T06:27:23.000Z,27.8
2018-12-04T06:29:23.000Z,27.8
2018-12-04T06:30:23.000Z,27.8
2018-12-04T06:31:23.000Z,27.9
2018-12-04T06:32:23.000Z,28
2018-12-04T06:34:23.000Z,28.1
2018-12-04T06:35:23.000Z,28.2
2018-12-04T06:37:23.000Z,28.2
2018-12-04T06:39:07.000Z,28.2
2018-12-04T06:40:23.000Z,28.1
2018-12-04T06:42:23.000Z,28.1
2018-12-04T06:43:23.000Z,28.1
2018-12-04T06:45:23.000Z,28.1
2018-12-04T06:47:23.000Z,28
2018-12-04T06:48:23.000Z,28.1
2018-12-04T06:49:23.000Z,28.1
2018-12-04T06:50:23.000Z,28.2
2018-12-04T06:52:23.000Z,28.2
2018-12-04T06:54:23.000Z,28.2
2018-12-04T06:56:23.000Z,28.1
2018-12-04T06:57:23.000Z,28.1
2018-12-04T06:59:23.000Z,28.1
2018-12-04T07:00:23.000Z,28.1
2018-12-04T07:01:23.000Z,28.1
2018-12-04T07:03:23.000Z,28.1
2018-12-04T07:04:23.000Z,28.2
2018-12-04T07:05:23.000Z,28.2
2018-12-04T07:07:23.000Z,28.3
2018-12-04T07:08:23.000Z,28.3
2018-12-04T07:09:23.000Z,28.3
2018-12-04T07:11:23.000Z,28.3
2018-12-04T07:13:23.000Z,28.2
2018-12-04T07:14:23.000Z,28
2018-12-04T07:16:23.000Z,27.4
2018-12-04T07:18:23.000Z,26.9
2018-12-04T07:19:23.000Z,26.6
2018-12-04T07:21:23.000Z,26.2
2018-12-04T07:22:23.000Z,26.2
2018-12-04T07:24:23.000Z,26.1
2018-12-04T07:25:23.000Z,25.9
2018-12-04T07:27:23.000Z,25.7
2018-12-04T07:28:23.000Z,25.6
2018-12-04T07:30:23.000Z,25.3
2018-12-04T07:32:23.000Z,25.1
2018-12-04T07:34:23.000Z,25
2018-12-04T07:35:23.000Z,24.9
2018-12-04T07:37:08.000Z,24.9
2018-12-04T07:38:23.000Z,24.8
2018-12-04T07:39:23.000Z,24.8
2018-12-04T07:41:23.000Z,24.6
2018-12-04T07:42:23.000Z,24.5
2018-12-04T07:44:23.000Z,24.5
2018-12-04T07:45:23.000Z,24.5
2018-12-04T07:47:23.000Z,24.5
2018-12-04T07:48:23.000Z,24.5
2018-12-04T07:50:23.000Z,24.5
2018-12-04T07:51:23.000Z,24.5
2018-12-04T07:53:23.000Z,24.5
2018-12-04T07:54:23.000Z,24.5
2018-12-04T07:56:23.000Z,24.5
2018-12-04T07:58:23.000Z,24.5
2018-12-04T07:59:23.000Z,24.6
2018-12-04T08:01:23.000Z,24.7
2018-12-04T08:02:23.000Z,24.7
2018-12-04T08:04:08.000Z,24.8
2018-12-04T08:05:23.000Z,24.9
2018-12-04T08:06:23.000Z,24.9
2018-12-04T08:08:23.000Z,24.9
2018-12-04T08:09:23.000Z,24.9
2018-12-04T08:11:23.000Z,24.8
2018-12-04T08:12:23.000Z,24.7
2018-12-04T08:14:23.000Z,24.7
2018-12-04T08:15:23.000Z,24.8
2018-12-04T08:16:23.000Z,24.9
2018-12-04T08:18:23.000Z,24.9
2018-12-04T08:19:23.000Z,24.8
2018-12-04T08:20:23.000Z,24.8
2018-12-04T08:22:23.000Z,24.9
2018-12-04T08:23:23.000Z,24.9
2018-12-04T08:24:23.000Z,24.8
2018-12-04T08:25:23.000Z,24.8
2018-12-04T08:27:23.000Z,24.8
2018-12-04T08:28:23.000Z,24.7
2018-12-04T08:30:23.000Z,24.6
2018-12-04T08:32:08.000Z,24.4
2018-12-04T08:33:23.000Z,24.2
2018-12-04T08:34:23.000Z,24.1
2018-12-04T08:35:38.000Z,24
2018-12-04T08:37:24.000Z,24
2018-12-04T08:39:09.000Z,24.1
2018-12-04T08:40:24.000Z,24
2018-12-04T08:41:24.000Z,23.9
2018-12-04T08:42:24.000Z,24
2018-12-04T08:44:24.000Z,24.1
2018-12-04T08:46:24.000Z,24.1
2018-12-04T08:48:24.000Z,24
2018-12-04T08:50:24.000Z,24
2018-12-04T08:51:24.000Z,24
2018-12-04T08:53:24.000Z,24
2018-12-04T08:54:24.000Z,24
2018-12-04T08:55:24.000Z,24.1
2018-12-04T08:56:24.000Z,24.2
2018-12-04T08:57:24.000Z,24.2
2018-12-04T08:58:24.000Z,24.3
2018-12-04T09:00:24.000Z,24.3
2018-12-04T09:02:24.000Z,24.4
2018-12-04T09:04:24.000Z,24.3
2018-12-04T09:05:24.000Z,24.4
2018-12-04T09:07:24.000Z,24.5
2018-12-04T09:09:24.000Z,24.4
2018-12-04T09:10:24.000Z,24.5
2018-12-04T09:12:24.000Z,24.6
2018-12-04T09:14:24.000Z,24.7
2018-12-04T09:16:24.000Z,24.6
2018-12-04T09:17:24.000Z,24.7
2018-12-04T09:19:24.000Z,24.7
2018-12-04T09:21:24.000Z,24.5
2018-12-04T09:23:08.000Z,24.4
2018-12-04T09:24:23.000Z,24.4
2018-12-04T09:26:23.000Z,24.3
2018-12-04T09:28:23.000Z,24.3
2018-12-04T09:30:23.000Z,24.4
2018-12-04T09:31:23.000Z,24.4
2018-12-04T09:33:23.000Z,24.3
2018-12-04T09:35:23.000Z,24.3
2018-12-04T09:36:23.000Z,24.3
2018-12-04T09:38:23.000Z,24.4
2018-12-04T09:39:23.000Z,24.4
2018-12-04T09:41:23.000Z,24.5
2018-12-04T09:42:23.000Z,24.5
2018-12-04T09:44:23.000Z,24.6
2018-12-04T09:45:23.000Z,24.6
2018-12-04T09:46:23.000Z,24.7
2018-12-04T09:48:23.000Z,24.7
2018-12-04T09:50:23.000Z,24.6
2018-12-04T09:51:23.000Z,24.6
2018-12-04T09:53:23.000Z,24.6
2018-12-04T09:55:23.000Z,24.4
2018-12-04T09:56:23.000Z,24.3
2018-12-04T09:57:23.000Z,24.4
2018-12-04T09:59:08.000Z,24.3
2018-12-04T10:00:23.000Z,24.2
2018-12-04T10:02:23.000Z,24.1
2018-12-04T10:03:23.000Z,24.1
2018-12-04T10:04:23.000Z,24.1
2018-12-04T10:06:08.000Z,24.1
2018-12-04T10:07:23.000Z,24
2018-12-04T10:08:23.000Z,24.1
2018-12-04T10:10:23.000Z,24.1
2018-12-04T10:12:23.000Z,24.1
2018-12-04T10:13:23.000Z,24.1
2018-12-04T10:15:08.000Z,24.2
2018-12-04T10:16:23.000Z,24.1
2018-12-04T10:18:08.000Z,24.1
2018-12-04T10:19:23.000Z,24
2018-12-04T10:20:23.000Z,23.9
2018-12-04T10:21:23.000Z,24
2018-12-04T10:22:23.000Z,24.1
2018-12-04T10:24:23.000Z,24.2
2018-12-04T10:25:23.000Z,24.2
2018-12-04T10:27:23.000Z,24.3
2018-12-04T10:29:23.000Z,24.3
2018-12-04T10:30:23.000Z,24.3
2018-12-04T10:32:23.000Z,24.4
2018-12-04T10:33:23.000Z,24.5
2018-12-04T10:34:23.000Z,24.5
2018-12-04T10:36:23.000Z,24.5
2018-12-04T10:38:23.000Z,24.5
2018-12-04T10:40:23.000Z,24.4
2018-12-04T10:41:23.000Z,24.3
2018-12-04T10:42:23.000Z,24.4
2018-12-04T10:43:23.000Z,24.4
2018-12-04T10:45:23.000Z,24.5
2018-12-04T10:46:23.000Z,24.6
2018-12-04T10:48:23.000Z,24.7
2018-12-04T10:50:23.000Z,24.9
2018-12-04T10:52:23.000Z,25.1
2018-12-04T10:53:23.000Z,25.2
2018-12-04T10:54:23.000Z,25.3
2018-12-04T10:55:23.000Z,25.5
2018-12-04T10:57:08.000Z,25.7
2018-12-04T10:58:23.000Z,25.7
2018-12-04T10:59:23.000Z,25.8
2018-12-04T11:01:23.000Z,25.9
2018-12-04T11:03:23.000Z,26
2018-12-04T11:04:23.000Z,26.1
2018-12-04T11:06:23.000Z,26.2
2018-12-04T11:08:23.000Z,26.3
2018-12-04T11:10:23.000Z,26.4
2018-12-04T11:12:08.000Z,26.4
2018-12-04T11:13:23.000Z,26.4
2018-12-04T11:14:23.000Z,26.4
2018-12-04T11:16:23.000Z,26.8
2018-12-04T11:18:23.000Z,27.1
2018-12-04T11:19:23.000Z,27.1
2018-12-04T11:20:23.000Z,27
2018-12-04T11:22:23.000Z,26.8
2018-12-04T11:23:23.000Z,26.6
2018-12-04T11:24:23.000Z,26.5
2018-12-04T11:25:23.000Z,26.4
2018-12-04T11:27:08.000Z,26.2
2018-12-04T11:28:23.000Z,26.1
2018-12-04T11:29:23.000Z,26
2018-12-04T11:31:23.000Z,26.1
2018-12-04T11:32:23.000Z,26.1
2018-12-04T11:33:23.000Z,26.2
2018-12-04T11:35:23.000Z,26.4
2018-12-04T11:36:23.000Z,26.4
2018-12-04T11:38:23.000Z,26.5
2018-12-04T11:39:23.000Z,26.6
2018-12-04T11:40:23.000Z,26.7
2018-12-04T11:42:23.000Z,27.2
2018-12-04T11:43:23.000Z,27.4
2018-12-04T11:45:08.000Z,27.8
2018-12-04T11:46:23.000Z,27.8
2018-12-04T11:48:23.000Z,27.7
2018-12-04T11:50:23.000Z,27.6
2018-12-04T11:51:23.000Z,27.7
2018-12-04T11:52:23.000Z,27.9
2018-12-04T11:54:23.000Z,28
2018-12-04T11:55:23.000Z,28
2018-12-04T11:57:23.000Z,28.2
2018-12-04T11:59:23.000Z,28.1
2018-12-04T12:01:23.000Z,28.2
2018-12-04T12:03:23.000Z,28.2
2018-12-04T12:05:23.000Z,27.7
2018-12-04T12:06:23.000Z,27.5
2018-12-04T12:07:23.000Z,27.2
2018-12-04T12:08:23.000Z,27
2018-12-04T12:10:08.000Z,26.8
2018-12-04T12:11:23.000Z,26.6
2018-12-04T12:12:23.000Z,26.5
2018-12-04T12:14:23.000Z,26.3
2018-12-04T12:16:23.000Z,26.2
2018-12-04T12:17:23.000Z,26.2
2018-12-04T12:19:23.000Z,26.1
2018-12-04T12:20:23.000Z,26.1
2018-12-04T12:22:08.000Z,26
2018-12-04T12:23:23.000Z,25.9
2018-12-04T12:24:23.000Z,25.9
2018-12-04T12:26:23.000Z,25.8
2018-12-04T12:28:23.000Z,25.8
2018-12-04T12:29:23.000Z,25.8
2018-12-04T12:31:23.000Z,26
2018-12-04T12:32:23.000Z,26
2018-12-04T12:34:24.000Z,26.1
2018-12-04T12:35:24.000Z,26.1
2018-12-04T12:37:24.000Z,26.1
2018-12-04T12:38:24.000Z,26.1
2018-12-04T12:40:24.000Z,26.2
2018-12-04T12:42:24.000Z,26.1
2018-12-04T12:44:09.000Z,26.1
2018-12-04T12:45:24.000Z,26
2018-12-04T12:47:24.000Z,26
2018-12-04T12:49:09.000Z,26.1
2018-12-04T13:26:48.000Z,24.4
2018-12-04T13:28:34.000Z,24.6
2018-12-04T13:29:34.000Z,24.8
2018-12-04T13:30:34.000Z,25
2018-12-04T13:32:34.000Z,25.2
2018-12-04T13:33:34.000Z,25.2
2018-12-04T13:35:34.000Z,25.3
2018-12-04T13:36:34.000Z,25.3
2018-12-04T13:38:34.000Z,25.3
2018-12-04T13:39:34.000Z,25.4
2018-12-04T13:41:34.000Z,25.3
2018-12-04T13:43:34.000Z,25.2
2018-12-04T13:45:34.000Z,25.2
2018-12-04T13:46:34.000Z,25.1
2018-12-04T13:47:34.000Z,25.1
2018-12-04T13:48:34.000Z,25.1
2018-12-04T13:50:34.000Z,25
2018-12-04T13:51:34.000Z,25
2018-12-04T13:52:34.000Z,25
2018-12-04T13:53:34.000Z,25.1
2018-12-04T13:55:34.000Z,25.1
2018-12-04T13:57:34.000Z,25.1
2018-12-04T13:59:34.000Z,25.3
2018-12-04T14:01:34.000Z,25.6
2018-12-04T14:03:34.000Z,26
2018-12-04T14:04:34.000Z,26.2
2018-12-04T14:06:19.000Z,26.5
2018-12-04T14:07:34.000Z,26.7
2018-12-04T14:09:34.000Z,26.9
2018-12-04T14:11:34.000Z,27
2018-12-04T14:12:34.000Z,27.1
2018-12-04T14:14:34.000Z,27.3
2018-12-04T14:15:34.000Z,27.4
2018-12-04T14:17:34.000Z,27.6
2018-12-04T14:19:18.000Z,27.7
2018-12-04T14:20:34.000Z,27.7
2018-12-04T14:22:34.000Z,27.7
2018-12-04T14:24:34.000Z,27.7
2018-12-04T14:25:34.000Z,27.8
2018-12-04T14:26:34.000Z,27.8
2018-12-04T14:28:18.000Z,27.9
2018-12-04T14:29:34.000Z,27.9
2018-12-04T14:31:34.000Z,27.8
2018-12-04T14:33:19.000Z,27.7
2018-12-04T14:34:34.000Z,27.7
2018-12-04T14:36:34.000Z,27.7
2018-12-04T14:38:19.000Z,27.6
2018-12-04T14:39:34.000Z,27.5
2018-12-04T14:41:34.000Z,27.3
2018-12-04T14:43:34.000Z,27.2
2018-12-04T14:44:34.000Z,27.2
2018-12-04T14:46:34.000Z,27.3
2018-12-04T14:48:34.000Z,27.3
2018-12-04T14:50:34.000Z,27.4
2018-12-04T14:51:34.000Z,27.4
2018-12-04T14:53:34.000Z,27.5
2018-12-04T14:55:34.000Z,27.5
2018-12-04T14:57:34.000Z,27.5
2018-12-04T14:59:34.000Z,27.5
2018-12-04T15:01:34.000Z,27.5
2018-12-04T15:03:34.000Z,27.5
2018-12-04T15:05:19.000Z,27.6
2018-12-04T15:06:34.000Z,27.6
2018-12-04T15:07:34.000Z,27.6
2018-12-04T15:09:34.000Z,27.6
2018-12-04T15:11:19.000Z,27.6
2018-12-04T15:21:09.000Z,26.3
2018-12-04T15:23:09.000Z,26.5
2018-12-04T15:24:09.000Z,26.6
2018-12-04T15:26:09.000Z,26.8
2018-12-04T15:28:09.000Z,27
2018-12-04T15:30:09.000Z,27
2018-12-04T15:31:09.000Z,27.1
2018-12-04T15:33:09.000Z,27.3
2018-12-04T15:34:54.000Z,27.4
2018-12-04T15:36:09.000Z,27.4
2018-12-04T15:38:09.000Z,27.3
2018-12-04T15:40:09.000Z,27.2
2018-12-04T15:42:09.000Z,27.1
2018-12-04T15:44:09.000Z,27.1
2018-12-04T15:45:10.000Z,27.1
2018-12-04T15:47:10.000Z,27.1
2018-12-04T15:49:09.000Z,27.1
2018-12-04T15:50:59.000Z,27.1
2018-12-04T15:53:09.000Z,27
2018-12-04T15:54:09.000Z,26.9
2018-12-04T15:56:09.000Z,26.9
2018-12-04T15:57:10.000Z,26.9
2018-12-04T15:58:10.000Z,27
2018-12-04T16:00:10.000Z,27.1
2018-12-04T16:01:10.000Z,27.1
2018-12-04T16:03:10.000Z,27.3
2018-12-04T16:04:10.000Z,27.3
2018-12-04T16:05:10.000Z,27.4
2018-12-04T16:06:10.000Z,27.4
2018-12-04T16:08:10.000Z,27.5
2018-12-04T16:10:10.000Z,27.5
2018-12-04T16:11:10.000Z,27.5
2018-12-04T16:13:10.000Z,27.6
2018-12-04T16:14:10.000Z,27.6
2018-12-04T16:15:10.000Z,27.6
2018-12-04T16:17:10.000Z,27.6
2018-12-04T16:19:10.000Z,27.5
2018-12-04T16:20:55.000Z,27.4
2018-12-04T16:22:10.000Z,27.4
2018-12-04T16:23:10.000Z,27.4
2018-12-04T16:24:10.000Z,27.5
2018-12-04T16:26:10.000Z,27.5
2018-12-04T16:28:10.000Z,27.5
2018-12-04T16:30:10.000Z,27.5
2018-12-04T16:32:10.000Z,27.4
2018-12-04T16:33:10.000Z,27.4
2018-12-04T16:34:10.000Z,27.4
2018-12-04T16:36:10.000Z,27.5
2018-12-04T16:38:10.000Z,27.4
2018-12-04T16:40:10.000Z,27.3
2018-12-04T16:42:09.000Z,27.2
2018-12-04T16:43:10.000Z,27.2
2018-12-04T16:45:10.000Z,27.2
2018-12-04T16:46:10.000Z,27.2
2018-12-04T16:47:09.000Z,27.3
2018-12-04T16:48:09.000Z,27.4
2018-12-04T16:50:09.000Z,27.5
2018-12-04T16:52:09.000Z,27.5
2018-12-04T16:53:09.000Z,27.5
2018-12-04T16:55:09.000Z,27.5
2018-12-04T16:56:09.000Z,27.5
2018-12-04T16:58:09.000Z,27.5
2018-12-04T17:00:09.000Z,27.5
2018-12-04T17:01:09.000Z,27.5
2018-12-04T17:03:09.000Z,27.5
2018-12-04T17:04:09.000Z,27.5
2018-12-04T17:05:09.000Z,27.5
2018-12-04T17:06:09.000Z,27.6
2018-12-04T17:07:09.000Z,27.6
2018-12-04T17:09:09.000Z,27.6
2018-12-04T17:11:09.000Z,27.5
2018-12-04T17:12:09.000Z,27.5
2018-12-04T17:14:09.000Z,27.6
2018-12-04T17:15:09.000Z,27.6
2018-12-04T17:16:09.000Z,27.6
2018-12-04T17:17:54.000Z,27.7
2018-12-04T17:19:09.000Z,27.7
2018-12-04T17:20:09.000Z,27.7
2018-12-04T17:21:09.000Z,27.7
2018-12-04T17:23:09.000Z,27.8
2018-12-04T17:24:09.000Z,27.8
2018-12-04T17:25:09.000Z,27.8
2018-12-04T17:26:54.000Z,27.8
2018-12-04T17:28:09.000Z,27.7
2018-12-04T17:29:54.000Z,27.7
2018-12-04T17:31:09.000Z,27.6
2018-12-04T17:32:09.000Z,27.6
2018-12-04T17:33:09.000Z,27.7
2018-12-04T17:35:09.000Z,27.6
2018-12-04T17:37:09.000Z,27.6
2018-12-04T17:39:09.000Z,27.5
2018-12-04T17:41:09.000Z,27.5
2018-12-04T17:42:09.000Z,27.5
2018-12-04T17:44:09.000Z,27.5
2018-12-04T17:45:09.000Z,27.6
2018-12-04T17:46:09.000Z,27.6
2018-12-04T17:47:54.000Z,27.7
2018-12-04T17:49:09.000Z,27.7
2018-12-04T17:50:09.000Z,27.7
2018-12-04T17:52:10.000Z,27.6
2018-12-04T17:54:10.000Z,27.6
2018-12-04T17:56:10.000Z,27.5
2018-12-04T17:57:10.000Z,27.5
2018-12-04T17:59:10.000Z,27.6
2018-12-04T18:00:10.000Z,27.6
2018-12-04T18:02:10.000Z,27.6
2018-12-04T18:04:10.000Z,27.5
2018-12-04T18:06:10.000Z,27.5
2018-12-04T18:07:10.000Z,27.5
2018-12-04T18:08:10.000Z,27.5
2018-12-04T18:09:55.000Z,27.5
2018-12-04T18:11:10.000Z,27.5
2018-12-04T18:12:10.000Z,27.5
2018-12-04T18:14:10.000Z,27.6
2018-12-04T18:16:10.000Z,27.6
2018-12-04T18:17:10.000Z,27.6
2018-12-04T18:19:10.000Z,27.5
2018-12-04T18:20:10.000Z,27.5
2018-12-04T18:22:10.000Z,27.5
2018-12-04T18:23:10.000Z,27.6
2018-12-04T18:24:10.000Z,27.6
2018-12-04T18:26:10.000Z,27.5
2018-12-04T18:28:10.000Z,27.4
2018-12-04T18:30:10.000Z,27.3
2018-12-04T18:32:10.000Z,27.2
2018-12-04T18:33:10.000Z,27.2
2018-12-04T18:34:10.000Z,27.2
2018-12-04T18:35:10.000Z,27.3
2018-12-04T18:37:10.000Z,27.4
2018-12-04T18:38:10.000Z,27.4
2018-12-04T18:40:10.000Z,27.5
2018-12-04T18:42:10.000Z,27.5
2018-12-04T18:43:10.000Z,27.4
2018-12-04T18:44:10.000Z,27.5
2018-12-04T18:45:10.000Z,27.5
2018-12-04T18:47:10.000Z,27.5
2018-12-04T18:48:10.000Z,27.5
2018-12-04T18:49:10.000Z,27.6
2018-12-04T18:51:10.000Z,27.6
2018-12-04T18:53:10.000Z,27.6
2018-12-04T18:55:09.000Z,27.5
2018-12-04T18:57:09.000Z,27.5
2018-12-04T18:59:09.000Z,27.4
2018-12-04T19:01:09.000Z,27.3
2018-12-04T19:02:09.000Z,27.3
2018-12-04T19:04:09.000Z,27.4
2018-12-04T19:06:09.000Z,27.4
2018-12-04T19:08:09.000Z,27.3
2018-12-04T19:09:09.000Z,27.3
2018-12-04T19:10:09.000Z,27.4
2018-12-04T19:12:09.000Z,27.5
2018-12-04T19:13:09.000Z,27.5
2018-12-04T19:14:09.000Z,27.5
2018-12-04T19:16:09.000Z,27.5
2018-12-04T19:17:09.000Z,27.5
2018-12-04T19:18:54.000Z,27.4
2018-12-04T19:20:09.000Z,27.4
2018-12-04T19:22:09.000Z,27.3
2018-12-04T19:24:09.000Z,27.3
2018-12-04T19:26:09.000Z,27.2
2018-12-04T19:28:09.000Z,27.2
2018-12-04T19:30:09.000Z,27.2
2018-12-04T19:32:09.000Z,27.2
2018-12-04T19:34:09.000Z,27.2
2018-12-04T19:35:09.000Z,27.2
2018-12-04T19:37:09.000Z,27.2
2018-12-04T19:38:54.000Z,27.2
2018-12-04T19:40:09.000Z,27.1
2018-12-04T19:42:09.000Z,27.1
2018-12-04T19:43:54.000Z,27.2
2018-12-04T19:45:09.000Z,27.1
2018-12-04T19:46:09.000Z,27
2018-12-04T19:48:09.000Z,27.1
2018-12-04T19:49:09.000Z,27.2
2018-12-04T19:51:09.000Z,27.3
2018-12-04T19:52:54.000Z,27.3
2018-12-04T19:54:09.000Z,27.2
2018-12-04T19:56:09.000Z,27.2
2018-12-04T19:57:09.000Z,27.2
2018-12-04T19:59:10.000Z,27.2
2018-12-04T20:00:10.000Z,27.3
2018-12-04T20:01:10.000Z,27.3
2018-12-04T20:02:10.000Z,27.3
2018-12-04T20:04:10.000Z,27.4
2018-12-04T20:05:54.000Z,27.4
2018-12-04T20:07:10.000Z,27.3
2018-12-04T20:08:10.000Z,27.4
2018-12-04T20:10:10.000Z,27.4
2018-12-04T20:12:10.000Z,27.3
2018-12-04T20:14:10.000Z,27.2
2018-12-04T20:15:10.000Z,27.2
2018-12-04T20:16:10.000Z,27.2
2018-12-04T20:17:10.000Z,27.3
2018-12-04T20:18:10.000Z,27.3
2018-12-04T20:20:10.000Z,27.4
2018-12-04T20:22:10.000Z,27.3
2018-12-04T20:24:10.000Z,27.2
2018-12-04T20:26:10.000Z,27.1
2018-12-04T20:28:10.000Z,27.1
2018-12-04T20:29:10.000Z,27.1
2018-12-04T20:31:10.000Z,27.2
2018-12-04T20:32:55.000Z,27.2
2018-12-04T21:16:43.000Z,24.9
2018-12-04T21:17:43.000Z,25
2018-12-04T21:18:43.000Z,25.2
2018-12-04T21:19:43.000Z,25.4
2018-12-04T21:21:43.000Z,25.8
2018-12-04T21:23:43.000Z,26.1
2018-12-04T21:24:43.000Z,26.2
2018-12-04T21:26:43.000Z,26.3
2018-12-04T21:28:43.000Z,26.4
2018-12-04T21:30:43.000Z,26.5
2018-12-04T21:31:43.000Z,26.6
2018-12-04T21:33:43.000Z,26.7
2018-12-04T21:35:43.000Z,26.8
2018-12-04T21:37:43.000Z,26.7
2018-12-04T21:39:27.000Z,26.7
2018-12-04T21:40:43.000Z,26.7
2018-12-04T21:41:43.000Z,26.8
2018-12-04T21:43:43.000Z,26.8
2018-12-04T21:45:43.000Z,26.9
2018-12-04T21:47:42.000Z,26.8
2018-12-04T21:48:43.000Z,26.8
2018-12-04T21:50:43.000Z,26.8
2018-12-04T21:51:43.000Z,26.8
2018-12-04T21:52:43.000Z,26.9
2018-12-04T21:53:43.000Z,26.9
2018-12-04T21:54:43.000Z,27